sensor_id;sensor_type;location;lat;lon;timestamp;temperature;humidity
30678;DHT22;73746;47.466;8.992;2024-01-16T00:01:33;-0.20;99.90
30678;DHT22;73746;47.466;8.992;2024-01-16T00:04:05;-0.30;99.90
30678;DHT22;73746;47.466;8.992;2024-01-16T00:06:40;-0.20;99.90
30678;DHT22;73746;47.466;8.992;2024-01-16T00:09:13;-0.30;99.90
30678;DHT22;73746;47.466;8.992;2024-01-16T00:11:45;-0.30;99.90
30678;DHT22;73746;47.466;8.992;2024-01-16T00:14:17;-0.30;99.90
30678;DHT22;73746;47.466;8.992;2024-01-16T00:16:49;-0.30;99.90
30678;DHT22;73746;47.466;8.992;2024-01-16T00:19:20;-0.30;99.90
30678;DHT22;73746;47.466;8.992;2024-01-16T00:21:52;-0.30;99.90
30678;DHT22;73746;47.466;8.992;2024-01-16T00:24:24;-0.30;99.90
30678;DHT22;73746;47.466;8.992;2024-01-16T00:26:56;-0.30;99.90
30678;DHT22;73746;47.466;8.992;2024-01-16T00:29:28;-0.20;99.90
30678;DHT22;73746;47.466;8.992;2024-01-16T00:32:01;-0.20;99.90
30678;DHT22;73746;47.466;8.992;2024-01-16T00:34:33;-0.20;99.90
30678;DHT22;73746;47.466;8.992;2024-01-16T00:37:05;-0.20;99.90
30678;DHT22;73746;47.466;8.992;2024-01-16T00:39:37;-0.30;99.90
30678;DHT22;73746;47.466;8.992;2024-01-16T00:42:09;-0.30;99.90
30678;DHT22;73746;47.466;8.992;2024-01-16T00:44:41;-0.40;99.90
30678;DHT22;73746;47.466;8.992;2024-01-16T00:47:13;-0.40;99.90
30678;DHT22;73746;47.466;8.992;2024-01-16T00:49:45;-0.30;99.90
30678;DHT22;73746;47.466;8.992;2024-01-16T00:52:18;-0.30;99.90
30678;DHT22;73746;47.466;8.992;2024-01-16T00:54:50;-0.30;99.90
30678;DHT22;73746;47.466;8.992;2024-01-16T00:57:22;-0.30;99.90
30678;DHT22;73746;47.466;8.992;2024-01-16T00:59:54;-0.30;99.90
30678;DHT22;73746;47.466;8.992;2024-01-16T01:02:26;-0.30;99.90
30678;DHT22;73746;47.466;8.992;2024-01-16T01:04:59;-0.30;99.90
30678;DHT22;73746;47.466;8.992;2024-01-16T01:07:31;-0.30;99.90
30678;DHT22;73746;47.466;8.992;2024-01-16T01:10:04;-0.30;99.90
30678;DHT22;73746;47.466;8.992;2024-01-16T01:12:36;-0.30;99.90
30678;DHT22;73746;47.466;8.992;2024-01-16T01:15:09;-0.30;99.90
30678;DHT22;73746;47.466;8.992;2024-01-16T01:17:42;-0.30;99.90
30678;DHT22;73746;47.466;8.992;2024-01-16T01:20:15;-0.30;99.90
30678;DHT22;73746;47.466;8.992;2024-01-16T01:22:47;-0.30;99.90
30678;DHT22;73746;47.466;8.992;2024-01-16T01:25:19;-0.40;99.90
30678;DHT22;73746;47.466;8.992;2024-01-16T01:27:52;-0.40;99.90
30678;DHT22;73746;47.466;8.992;2024-01-16T01:30:24;-0.40;99.90
30678;DHT22;73746;47.466;8.992;2024-01-16T01:32:56;-0.40;99.90
30678;DHT22;73746;47.466;8.992;2024-01-16T01:35:28;-0.40;99.90
30678;DHT22;73746;47.466;8.992;2024-01-16T01:38:00;-0.40;99.90
30678;DHT22;73746;47.466;8.992;2024-01-16T01:40:32;-0.40;99.90
30678;DHT22;73746;47.466;8.992;2024-01-16T01:43:18;-0.40;99.90
30678;DHT22;73746;47.466;8.992;2024-01-16T01:45:59;-0.30;99.90
30678;DHT22;73746;47.466;8.992;2024-01-16T01:48:30;-0.30;99.90
30678;DHT22;73746;47.466;8.992;2024-01-16T01:51:03;-0.40;99.90
30678;DHT22;73746;47.466;8.992;2024-01-16T01:53:35;-0.40;99.90
30678;DHT22;73746;47.466;8.992;2024-01-16T01:56:11;-0.40;99.90
30678;DHT22;73746;47.466;8.992;2024-01-16T01:58:46;-0.40;99.90
30678;DHT22;73746;47.466;8.992;2024-01-16T02:01:19;-0.40;99.90
30678;DHT22;73746;47.466;8.992;2024-01-16T02:03:53;-0.40;99.90
30678;DHT22;73746;47.466;8.992;2024-01-16T02:06:27;-0.40;99.90
30678;DHT22;73746;47.466;8.992;2024-01-16T02:08:59;-0.40;99.90
30678;DHT22;73746;47.466;8.992;2024-01-16T02:11:32;-0.40;99.90
30678;DHT22;73746;47.466;8.992;2024-01-16T02:14:04;-0.40;99.90
30678;DHT22;73746;47.466;8.992;2024-01-16T02:16:38;-0.40;99.90
30678;DHT22;73746;47.466;8.992;2024-01-16T02:19:10;-0.40;99.90
30678;DHT22;73746;47.466;8.992;2024-01-16T02:21:46;-0.40;99.90
30678;DHT22;73746;47.466;8.992;2024-01-16T02:24:20;-0.40;99.90
30678;DHT22;73746;47.466;8.992;2024-01-16T02:26:52;-0.40;99.90
30678;DHT22;73746;47.466;8.992;2024-01-16T02:29:25;-0.40;99.90
30678;DHT22;73746;47.466;8.992;2024-01-16T02:31:57;-0.30;99.90
30678;DHT22;73746;47.466;8.992;2024-01-16T02:34:29;-0.30;99.90
30678;DHT22;73746;47.466;8.992;2024-01-16T02:37:01;-0.30;99.90
30678;DHT22;73746;47.466;8.992;2024-01-16T02:39:33;-0.40;99.90
30678;DHT22;73746;47.466;8.992;2024-01-16T02:42:05;-0.30;99.90
30678;DHT22;73746;47.466;8.992;2024-01-16T02:44:37;-0.40;99.90
30678;DHT22;73746;47.466;8.992;2024-01-16T02:47:11;-0.40;99.90
30678;DHT22;73746;47.466;8.992;2024-01-16T02:49:43;-0.60;99.90
30678;DHT22;73746;47.466;8.992;2024-01-16T02:52:15;-0.60;99.90
30678;DHT22;73746;47.466;8.992;2024-01-16T02:54:47;-0.70;99.90
30678;DHT22;73746;47.466;8.992;2024-01-16T02:57:19;-0.70;99.90
30678;DHT22;73746;47.466;8.992;2024-01-16T02:59:51;-0.80;99.90
30678;DHT22;73746;47.466;8.992;2024-01-16T03:02:23;-0.80;99.90
30678;DHT22;73746;47.466;8.992;2024-01-16T03:04:55;-0.90;99.90
30678;DHT22;73746;47.466;8.992;2024-01-16T03:07:26;-0.90;99.90
30678;DHT22;73746;47.466;8.992;2024-01-16T03:09:58;-0.80;99.90
30678;DHT22;73746;47.466;8.992;2024-01-16T03:12:30;-0.80;99.90
30678;DHT22;73746;47.466;8.992;2024-01-16T03:15:03;-0.80;99.90
30678;DHT22;73746;47.466;8.992;2024-01-16T03:17:35;-0.70;99.90
30678;DHT22;73746;47.466;8.992;2024-01-16T03:20:09;-0.70;99.90
30678;DHT22;73746;47.466;8.992;2024-01-16T03:22:42;-0.70;99.90
30678;DHT22;73746;47.466;8.992;2024-01-16T03:25:15;-0.70;99.90
30678;DHT22;73746;47.466;8.992;2024-01-16T03:27:53;-0.60;99.90
30678;DHT22;73746;47.466;8.992;2024-01-16T03:30:25;-0.60;99.90
30678;DHT22;73746;47.466;8.992;2024-01-16T03:32:58;-0.60;99.90
30678;DHT22;73746;47.466;8.992;2024-01-16T03:35:30;-0.50;99.90
30678;DHT22;73746;47.466;8.992;2024-01-16T03:38:02;-0.50;99.90
30678;DHT22;73746;47.466;8.992;2024-01-16T03:40:35;-0.50;99.90
30678;DHT22;73746;47.466;8.992;2024-01-16T03:43:07;-0.50;99.90
30678;DHT22;73746;47.466;8.992;2024-01-16T03:45:57;-0.50;99.90
30678;DHT22;73746;47.466;8.992;2024-01-16T03:48:29;-0.40;99.90
30678;DHT22;73746;47.466;8.992;2024-01-16T03:51:02;-0.50;99.90
30678;DHT22;73746;47.466;8.992;2024-01-16T03:53:33;-0.50;99.90
30678;DHT22;73746;47.466;8.992;2024-01-16T03:56:06;-0.40;99.90
30678;DHT22;73746;47.466;8.992;2024-01-16T03:58:39;-0.40;99.90
30678;DHT22;73746;47.466;8.992;2024-01-16T04:01:11;-0.40;99.90
30678;DHT22;73746;47.466;8.992;2024-01-16T04:03:44;-0.50;99.90
30678;DHT22;73746;47.466;8.992;2024-01-16T04:06:17;-0.50;99.90
30678;DHT22;73746;47.466;8.992;2024-01-16T04:08:49;-0.50;99.90
30678;DHT22;73746;47.466;8.992;2024-01-16T04:11:21;-0.50;99.90
30678;DHT22;73746;47.466;8.992;2024-01-16T04:13:53;-0.50;99.90
30678;DHT22;73746;47.466;8.992;2024-01-16T04:16:25;-0.60;99.90
30678;DHT22;73746;47.466;8.992;2024-01-16T04:18:57;-0.60;99.90
30678;DHT22;73746;47.466;8.992;2024-01-16T04:21:29;-0.60;99.90
30678;DHT22;73746;47.466;8.992;2024-01-16T04:24:01;-0.60;99.90
30678;DHT22;73746;47.466;8.992;2024-01-16T04:26:35;-0.70;99.90
30678;DHT22;73746;47.466;8.992;2024-01-16T04:29:08;-0.70;99.90
30678;DHT22;73746;47.466;8.992;2024-01-16T04:31:42;-0.60;99.90
30678;DHT22;73746;47.466;8.992;2024-01-16T04:34:14;-0.60;99.90
30678;DHT22;73746;47.466;8.992;2024-01-16T04:36:46;-0.60;99.90
30678;DHT22;73746;47.466;8.992;2024-01-16T04:39:18;-0.60;99.90
30678;DHT22;73746;47.466;8.992;2024-01-16T04:41:50;-0.70;99.90
30678;DHT22;73746;47.466;8.992;2024-01-16T04:44:22;-0.70;99.90
30678;DHT22;73746;47.466;8.992;2024-01-16T04:46:54;-0.60;99.90
30678;DHT22;73746;47.466;8.992;2024-01-16T04:49:25;-0.60;99.90
30678;DHT22;73746;47.466;8.992;2024-01-16T04:51:57;-0.50;99.90
30678;DHT22;73746;47.466;8.992;2024-01-16T04:54:29;-0.40;99.90
30678;DHT22;73746;47.466;8.992;2024-01-16T04:57:01;-0.40;99.90
30678;DHT22;73746;47.466;8.992;2024-01-16T04:59:33;-0.40;99.90
30678;DHT22;73746;47.466;8.992;2024-01-16T05:02:05;-0.40;99.90
30678;DHT22;73746;47.466;8.992;2024-01-16T05:04:38;-0.40;99.90
30678;DHT22;73746;47.466;8.992;2024-01-16T05:07:10;-0.50;99.90
30678;DHT22;73746;47.466;8.992;2024-01-16T05:09:42;-0.60;99.90
30678;DHT22;73746;47.466;8.992;2024-01-16T05:12:15;-0.60;99.90
30678;DHT22;73746;47.466;8.992;2024-01-16T05:14:47;-0.70;99.90
30678;DHT22;73746;47.466;8.992;2024-01-16T05:17:19;-0.70;99.90
30678;DHT22;73746;47.466;8.992;2024-01-16T05:19:51;-0.70;99.90
30678;DHT22;73746;47.466;8.992;2024-01-16T05:22:23;-0.60;99.90
30678;DHT22;73746;47.466;8.992;2024-01-16T05:24:56;-0.60;99.90
30678;DHT22;73746;47.466;8.992;2024-01-16T05:27:28;-0.60;99.90
30678;DHT22;73746;47.466;8.992;2024-01-16T05:30:00;-0.50;99.90
30678;DHT22;73746;47.466;8.992;2024-01-16T05:32:32;-0.50;99.90
30678;DHT22;73746;47.466;8.992;2024-01-16T05:35:06;-0.50;99.90
30678;DHT22;73746;47.466;8.992;2024-01-16T05:37:40;-0.50;99.90
30678;DHT22;73746;47.466;8.992;2024-01-16T05:40:13;-0.40;99.90
30678;DHT22;73746;47.466;8.992;2024-01-16T05:42:44;-0.40;99.90
30678;DHT22;73746;47.466;8.992;2024-01-16T05:45:17;-0.50;99.90
30678;DHT22;73746;47.466;8.992;2024-01-16T05:47:48;-0.60;99.90
30678;DHT22;73746;47.466;8.992;2024-01-16T05:50:20;-0.60;99.90
30678;DHT22;73746;47.466;8.992;2024-01-16T05:52:52;-0.70;99.90
30678;DHT22;73746;47.466;8.992;2024-01-16T05:55:25;-0.70;99.90
30678;DHT22;73746;47.466;8.992;2024-01-16T05:57:57;-0.70;99.90
30678;DHT22;73746;47.466;8.992;2024-01-16T06:00:29;-0.70;99.90
30678;DHT22;73746;47.466;8.992;2024-01-16T06:03:04;-0.70;99.90
30678;DHT22;73746;47.466;8.992;2024-01-16T06:05:36;-0.70;99.90
30678;DHT22;73746;47.466;8.992;2024-01-16T06:08:09;-0.70;99.90
30678;DHT22;73746;47.466;8.992;2024-01-16T06:10:41;-0.70;99.90
30678;DHT22;73746;47.466;8.992;2024-01-16T06:13:13;-0.60;99.90
30678;DHT22;73746;47.466;8.992;2024-01-16T06:15:45;-0.70;99.90
30678;DHT22;73746;47.466;8.992;2024-01-16T06:18:17;-0.70;99.90
30678;DHT22;73746;47.466;8.992;2024-01-16T06:20:50;-0.70;99.90
30678;DHT22;73746;47.466;8.992;2024-01-16T06:23:22;-0.70;99.90
30678;DHT22;73746;47.466;8.992;2024-01-16T06:25:54;-0.70;99.90
30678;DHT22;73746;47.466;8.992;2024-01-16T06:28:26;-0.60;99.90
30678;DHT22;73746;47.466;8.992;2024-01-16T06:30:58;-0.70;99.90
30678;DHT22;73746;47.466;8.992;2024-01-16T06:33:30;-0.70;99.90
30678;DHT22;73746;47.466;8.992;2024-01-16T06:36:03;-0.80;99.90
30678;DHT22;73746;47.466;8.992;2024-01-16T06:38:35;-0.90;99.90
30678;DHT22;73746;47.466;8.992;2024-01-16T06:41:12;-0.90;99.90
30678;DHT22;73746;47.466;8.992;2024-01-16T06:43:44;-1.00;99.90
30678;DHT22;73746;47.466;8.992;2024-01-16T06:46:16;-1.00;99.90
30678;DHT22;73746;47.466;8.992;2024-01-16T06:48:48;-1.10;99.90
30678;DHT22;73746;47.466;8.992;2024-01-16T06:51:20;-1.10;99.90
30678;DHT22;73746;47.466;8.992;2024-01-16T06:53:52;-1.20;99.90
30678;DHT22;73746;47.466;8.992;2024-01-16T06:56:24;-1.20;99.90
30678;DHT22;73746;47.466;8.992;2024-01-16T06:58:57;-1.20;99.90
30678;DHT22;73746;47.466;8.992;2024-01-16T07:01:29;-1.20;99.90
30678;DHT22;73746;47.466;8.992;2024-01-16T07:04:02;-1.20;99.90
30678;DHT22;73746;47.466;8.992;2024-01-16T07:06:34;-1.30;99.90
30678;DHT22;73746;47.466;8.992;2024-01-16T07:09:06;-1.20;99.90
30678;DHT22;73746;47.466;8.992;2024-01-16T07:11:40;-1.20;99.90
30678;DHT22;73746;47.466;8.992;2024-01-16T07:14:14;-1.20;99.90
30678;DHT22;73746;47.466;8.992;2024-01-16T07:16:46;-1.30;99.90
30678;DHT22;73746;47.466;8.992;2024-01-16T07:19:18;-1.30;99.90
30678;DHT22;73746;47.466;8.992;2024-01-16T07:21:50;-1.20;99.90
30678;DHT22;73746;47.466;8.992;2024-01-16T07:24:22;-1.20;99.90
30678;DHT22;73746;47.466;8.992;2024-01-16T07:26:55;-1.20;99.90
30678;DHT22;73746;47.466;8.992;2024-01-16T07:29:27;-1.30;99.90
30678;DHT22;73746;47.466;8.992;2024-01-16T07:31:59;-1.20;99.90
30678;DHT22;73746;47.466;8.992;2024-01-16T07:34:30;-1.10;99.90
30678;DHT22;73746;47.466;8.992;2024-01-16T07:37:03;-1.20;99.90
30678;DHT22;73746;47.466;8.992;2024-01-16T07:39:35;-1.30;99.90
30678;DHT22;73746;47.466;8.992;2024-01-16T07:42:07;-1.30;99.90
30678;DHT22;73746;47.466;8.992;2024-01-16T07:44:39;-1.20;99.90
30678;DHT22;73746;47.466;8.992;2024-01-16T07:47:11;-1.20;99.90
30678;DHT22;73746;47.466;8.992;2024-01-16T07:49:43;-1.10;99.90
30678;DHT22;73746;47.466;8.992;2024-01-16T07:52:15;-1.10;99.90
30678;DHT22;73746;47.466;8.992;2024-01-16T07:54:46;-1.10;99.90
30678;DHT22;73746;47.466;8.992;2024-01-16T07:57:19;-1.10;99.90
30678;DHT22;73746;47.466;8.992;2024-01-16T07:59:51;-1.00;99.90
30678;DHT22;73746;47.466;8.992;2024-01-16T08:02:26;-0.90;99.90
30678;DHT22;73746;47.466;8.992;2024-01-16T08:04:57;-0.90;99.90
30678;DHT22;73746;47.466;8.992;2024-01-16T08:07:29;-0.80;99.90
30678;DHT22;73746;47.466;8.992;2024-01-16T08:10:01;-0.70;99.90
30678;DHT22;73746;47.466;8.992;2024-01-16T08:12:32;-0.60;99.90
30678;DHT22;73746;47.466;8.992;2024-01-16T08:15:06;-0.60;99.90
30678;DHT22;73746;47.466;8.992;2024-01-16T08:17:38;-0.60;99.90
30678;DHT22;73746;47.466;8.992;2024-01-16T08:20:11;-0.40;99.90
30678;DHT22;73746;47.466;8.992;2024-01-16T08:22:44;-0.30;99.90
30678;DHT22;73746;47.466;8.992;2024-01-16T08:25:16;-0.20;99.90
30678;DHT22;73746;47.466;8.992;2024-01-16T08:27:48;-0.10;99.90
30678;DHT22;73746;47.466;8.992;2024-01-16T08:30:20;0.00;99.90
30678;DHT22;73746;47.466;8.992;2024-01-16T08:33:11;0.20;99.90
30678;DHT22;73746;47.466;8.992;2024-01-16T08:35:43;0.30;99.90
30678;DHT22;73746;47.466;8.992;2024-01-16T08:38:15;0.50;99.90
30678;DHT22;73746;47.466;8.992;2024-01-16T08:40:48;0.60;99.90
30678;DHT22;73746;47.466;8.992;2024-01-16T08:43:20;0.80;99.90
30678;DHT22;73746;47.466;8.992;2024-01-16T08:45:52;1.20;99.90
30678;DHT22;73746;47.466;8.992;2024-01-16T08:48:24;1.60;99.90
30678;DHT22;73746;47.466;8.992;2024-01-16T08:50:57;2.10;99.90
30678;DHT22;73746;47.466;8.992;2024-01-16T08:53:31;2.50;99.90
30678;DHT22;73746;47.466;8.992;2024-01-16T08:56:05;2.80;99.90
30678;DHT22;73746;47.466;8.992;2024-01-16T08:58:38;3.10;99.90
30678;DHT22;73746;47.466;8.992;2024-01-16T09:01:11;3.30;99.90
30678;DHT22;73746;47.466;8.992;2024-01-16T09:03:43;3.50;99.90
30678;DHT22;73746;47.466;8.992;2024-01-16T09:06:15;3.70;99.90
30678;DHT22;73746;47.466;8.992;2024-01-16T09:08:48;3.80;99.90
30678;DHT22;73746;47.466;8.992;2024-01-16T09:11:22;3.80;99.90
30678;DHT22;73746;47.466;8.992;2024-01-16T09:13:54;3.90;99.90
30678;DHT22;73746;47.466;8.992;2024-01-16T09:16:48;4.00;99.90
30678;DHT22;73746;47.466;8.992;2024-01-16T09:19:21;4.10;99.90
30678;DHT22;73746;47.466;8.992;2024-01-16T09:21:53;4.00;99.90
30678;DHT22;73746;47.466;8.992;2024-01-16T09:24:25;4.00;99.90
30678;DHT22;73746;47.466;8.992;2024-01-16T09:26:57;4.00;99.90
30678;DHT22;73746;47.466;8.992;2024-01-16T09:29:30;4.10;99.90
30678;DHT22;73746;47.466;8.992;2024-01-16T09:32:02;4.20;99.90
30678;DHT22;73746;47.466;8.992;2024-01-16T09:34:35;4.20;99.90
30678;DHT22;73746;47.466;8.992;2024-01-16T09:37:06;4.20;99.90
30678;DHT22;73746;47.466;8.992;2024-01-16T09:39:38;4.10;99.90
30678;DHT22;73746;47.466;8.992;2024-01-16T09:42:10;4.10;99.90
30678;DHT22;73746;47.466;8.992;2024-01-16T09:44:43;4.10;99.90
30678;DHT22;73746;47.466;8.992;2024-01-16T09:47:16;4.10;99.90
30678;DHT22;73746;47.466;8.992;2024-01-16T09:49:49;4.10;99.90
30678;DHT22;73746;47.466;8.992;2024-01-16T09:55:06;4.10;99.90
30678;DHT22;73746;47.466;8.992;2024-01-16T09:57:40;4.00;99.90
30678;DHT22;73746;47.466;8.992;2024-01-16T10:00:14;4.00;99.90
30678;DHT22;73746;47.466;8.992;2024-01-16T10:02:46;4.10;99.90
30678;DHT22;73746;47.466;8.992;2024-01-16T10:05:18;4.10;99.90
30678;DHT22;73746;47.466;8.992;2024-01-16T10:07:52;4.10;99.90
30678;DHT22;73746;47.466;8.992;2024-01-16T10:10:24;4.10;99.90
30678;DHT22;73746;47.466;8.992;2024-01-16T10:13:00;4.10;99.90
30678;DHT22;73746;47.466;8.992;2024-01-16T10:15:32;4.00;99.90
30678;DHT22;73746;47.466;8.992;2024-01-16T10:18:05;4.00;99.90
30678;DHT22;73746;47.466;8.992;2024-01-16T10:20:38;4.10;99.90
30678;DHT22;73746;47.466;8.992;2024-01-16T10:23:11;4.20;99.90
30678;DHT22;73746;47.466;8.992;2024-01-16T10:25:44;4.40;99.90
30678;DHT22;73746;47.466;8.992;2024-01-16T10:31:01;4.80;99.90
30678;DHT22;73746;47.466;8.992;2024-01-16T10:33:34;4.80;99.90
30678;DHT22;73746;47.466;8.992;2024-01-16T10:36:10;4.70;99.90
30678;DHT22;73746;47.466;8.992;2024-01-16T10:38:44;4.60;99.90
30678;DHT22;73746;47.466;8.992;2024-01-16T10:41:17;4.50;99.90
30678;DHT22;73746;47.466;8.992;2024-01-16T10:43:49;4.20;99.90
30678;DHT22;73746;47.466;8.992;2024-01-16T10:46:22;4.00;99.90
30678;DHT22;73746;47.466;8.992;2024-01-16T10:49:01;3.90;99.90
30678;DHT22;73746;47.466;8.992;2024-01-16T10:51:33;3.80;99.90
30678;DHT22;73746;47.466;8.992;2024-01-16T10:54:06;3.80;99.90
30678;DHT22;73746;47.466;8.992;2024-01-16T10:56:41;3.80;99.90
30678;DHT22;73746;47.466;8.992;2024-01-16T10:59:21;3.90;99.90
30678;DHT22;73746;47.466;8.992;2024-01-16T11:01:54;3.90;99.90
30678;DHT22;73746;47.466;8.992;2024-01-16T11:04:28;4.00;99.90
30678;DHT22;73746;47.466;8.992;2024-01-16T11:07:00;4.20;99.90
30678;DHT22;73746;47.466;8.992;2024-01-16T11:09:35;4.20;99.90
30678;DHT22;73746;47.466;8.992;2024-01-16T11:12:12;4.30;99.90
30678;DHT22;73746;47.466;8.992;2024-01-16T11:14:46;4.40;99.90
30678;DHT22;73746;47.466;8.992;2024-01-16T11:17:22;4.40;99.90
30678;DHT22;73746;47.466;8.992;2024-01-16T11:19:54;4.50;99.90
30678;DHT22;73746;47.466;8.992;2024-01-16T11:25:48;4.60;99.90
30678;DHT22;73746;47.466;8.992;2024-01-16T11:28:20;4.70;99.90
30678;DHT22;73746;47.466;8.992;2024-01-16T11:30:52;4.70;99.90
30678;DHT22;73746;47.466;8.992;2024-01-16T11:33:42;4.80;99.90
30678;DHT22;73746;47.466;8.992;2024-01-16T11:36:49;4.90;99.90
30678;DHT22;73746;47.466;8.992;2024-01-16T11:39:25;5.30;99.90
30678;DHT22;73746;47.466;8.992;2024-01-16T11:41:57;5.50;99.90
30678;DHT22;73746;47.466;8.992;2024-01-16T11:44:49;5.80;99.90
30678;DHT22;73746;47.466;8.992;2024-01-16T11:47:21;6.20;99.90
30678;DHT22;73746;47.466;8.992;2024-01-16T11:50:08;6.50;99.90
30678;DHT22;73746;47.466;8.992;2024-01-16T11:52:42;6.70;99.90
30678;DHT22;73746;47.466;8.992;2024-01-16T11:55:26;6.70;99.90
30678;DHT22;73746;47.466;8.992;2024-01-16T11:58:21;6.70;99.90
30678;DHT22;73746;47.466;8.992;2024-01-16T12:00:54;6.70;99.90
30678;DHT22;73746;47.466;8.992;2024-01-16T12:03:28;7.00;99.90
30678;DHT22;73746;47.466;8.992;2024-01-16T12:06:02;7.50;99.90
30678;DHT22;73746;47.466;8.992;2024-01-16T12:08:36;8.00;99.90
30678;DHT22;73746;47.466;8.992;2024-01-16T12:11:08;8.30;99.90
30678;DHT22;73746;47.466;8.992;2024-01-16T12:13:40;8.30;99.90
30678;DHT22;73746;47.466;8.992;2024-01-16T12:16:12;8.40;99.90
30678;DHT22;73746;47.466;8.992;2024-01-16T12:18:45;8.40;99.90
30678;DHT22;73746;47.466;8.992;2024-01-16T12:21:18;8.20;99.90
30678;DHT22;73746;47.466;8.992;2024-01-16T12:23:51;8.30;99.90
30678;DHT22;73746;47.466;8.992;2024-01-16T12:26:24;8.20;99.90
30678;DHT22;73746;47.466;8.992;2024-01-16T12:28:56;8.30;99.90
30678;DHT22;73746;47.466;8.992;2024-01-16T12:31:30;8.30;99.90
30678;DHT22;73746;47.466;8.992;2024-01-16T12:34:10;8.30;99.90
30678;DHT22;73746;47.466;8.992;2024-01-16T12:36:42;8.10;99.90
30678;DHT22;73746;47.466;8.992;2024-01-16T12:39:19;7.60;99.90
30678;DHT22;73746;47.466;8.992;2024-01-16T12:41:51;7.20;99.90
30678;DHT22;73746;47.466;8.992;2024-01-16T12:44:28;6.80;99.90
30678;DHT22;73746;47.466;8.992;2024-01-16T12:47:00;6.40;99.90
30678;DHT22;73746;47.466;8.992;2024-01-16T12:49:33;6.10;99.90
30678;DHT22;73746;47.466;8.992;2024-01-16T12:52:21;5.80;99.90
30678;DHT22;73746;47.466;8.992;2024-01-16T12:55:00;5.60;99.90
30678;DHT22;73746;47.466;8.992;2024-01-16T12:57:34;5.30;99.90
30678;DHT22;73746;47.466;8.992;2024-01-16T13:00:23;5.00;99.90
30678;DHT22;73746;47.466;8.992;2024-01-16T13:02:56;4.80;99.90
30678;DHT22;73746;47.466;8.992;2024-01-16T13:05:30;4.70;99.90
30678;DHT22;73746;47.466;8.992;2024-01-16T13:08:04;4.60;99.90
30678;DHT22;73746;47.466;8.992;2024-01-16T13:10:36;4.60;99.90
30678;DHT22;73746;47.466;8.992;2024-01-16T13:13:16;4.70;99.90
30678;DHT22;73746;47.466;8.992;2024-01-16T13:15:48;4.70;99.90
30678;DHT22;73746;47.466;8.992;2024-01-16T13:18:22;4.80;99.90
30678;DHT22;73746;47.466;8.992;2024-01-16T13:20:56;4.80;99.90
30678;DHT22;73746;47.466;8.992;2024-01-16T13:23:29;4.70;99.90
30678;DHT22;73746;47.466;8.992;2024-01-16T13:26:01;4.50;99.90
30678;DHT22;73746;47.466;8.992;2024-01-16T13:28:35;4.50;99.90
30678;DHT22;73746;47.466;8.992;2024-01-16T13:31:07;4.40;99.90
30678;DHT22;73746;47.466;8.992;2024-01-16T13:33:39;4.30;99.90
30678;DHT22;73746;47.466;8.992;2024-01-16T13:36:11;4.20;99.90
30678;DHT22;73746;47.466;8.992;2024-01-16T13:38:43;4.20;99.90
30678;DHT22;73746;47.466;8.992;2024-01-16T13:41:16;4.30;99.90
30678;DHT22;73746;47.466;8.992;2024-01-16T13:43:48;4.40;99.90
30678;DHT22;73746;47.466;8.992;2024-01-16T13:46:20;4.50;99.90
30678;DHT22;73746;47.466;8.992;2024-01-16T13:48:54;4.60;99.90
30678;DHT22;73746;47.466;8.992;2024-01-16T13:51:26;4.70;99.90
30678;DHT22;73746;47.466;8.992;2024-01-16T13:53:58;4.90;99.90
30678;DHT22;73746;47.466;8.992;2024-01-16T13:56:30;5.10;99.90
30678;DHT22;73746;47.466;8.992;2024-01-16T13:59:04;5.30;99.90
30678;DHT22;73746;47.466;8.992;2024-01-16T14:01:36;5.60;99.90
30678;DHT22;73746;47.466;8.992;2024-01-16T14:04:08;6.10;99.90
30678;DHT22;73746;47.466;8.992;2024-01-16T14:06:40;6.40;99.90
30678;DHT22;73746;47.466;8.992;2024-01-16T14:09:13;6.90;99.90
30678;DHT22;73746;47.466;8.992;2024-01-16T14:11:45;7.50;99.90
30678;DHT22;73746;47.466;8.992;2024-01-16T14:14:18;8.80;99.90
30678;DHT22;73746;47.466;8.992;2024-01-16T14:16:50;10.10;99.90
30678;DHT22;73746;47.466;8.992;2024-01-16T14:19:23;11.20;99.90
30678;DHT22;73746;47.466;8.992;2024-01-16T14:21:57;12.20;99.90
30678;DHT22;73746;47.466;8.992;2024-01-16T14:24:29;13.00;99.90
30678;DHT22;73746;47.466;8.992;2024-01-16T14:27:01;13.80;97.80
30678;DHT22;73746;47.466;8.992;2024-01-16T14:29:33;14.50;95.70
30678;DHT22;73746;47.466;8.992;2024-01-16T14:32:07;15.10;93.90
30678;DHT22;73746;47.466;8.992;2024-01-16T14:34:40;15.50;91.80
30678;DHT22;73746;47.466;8.992;2024-01-16T14:37:13;15.70;90.80
30678;DHT22;73746;47.466;8.992;2024-01-16T14:39:46;16.10;89.70
30678;DHT22;73746;47.466;8.992;2024-01-16T14:42:18;15.90;86.70
30678;DHT22;73746;47.466;8.992;2024-01-16T14:44:50;14.40;88.00
30678;DHT22;73746;47.466;8.992;2024-01-16T14:47:22;12.90;90.90
30678;DHT22;73746;47.466;8.992;2024-01-16T14:49:54;11.40;92.00
30678;DHT22;73746;47.466;8.992;2024-01-16T14:52:26;9.90;94.10
30678;DHT22;73746;47.466;8.992;2024-01-16T14:54:58;8.80;96.40
30678;DHT22;73746;47.466;8.992;2024-01-16T14:57:32;7.80;98.20
30678;DHT22;73746;47.466;8.992;2024-01-16T15:00:08;7.00;99.60
30678;DHT22;73746;47.466;8.992;2024-01-16T15:02:45;6.40;99.90
30678;DHT22;73746;47.466;8.992;2024-01-16T15:05:19;5.90;99.90
30678;DHT22;73746;47.466;8.992;2024-01-16T15:07:52;5.40;99.90
30678;DHT22;73746;47.466;8.992;2024-01-16T15:10:24;5.00;99.90
30678;DHT22;73746;47.466;8.992;2024-01-16T15:12:57;4.70;99.90
30678;DHT22;73746;47.466;8.992;2024-01-16T15:15:29;4.50;99.90
30678;DHT22;73746;47.466;8.992;2024-01-16T15:18:01;4.20;99.90
30678;DHT22;73746;47.466;8.992;2024-01-16T15:20:33;4.00;99.90
30678;DHT22;73746;47.466;8.992;2024-01-16T15:23:05;3.80;99.90
30678;DHT22;73746;47.466;8.992;2024-01-16T15:25:37;3.70;99.90
30678;DHT22;73746;47.466;8.992;2024-01-16T15:28:09;3.40;99.90
30678;DHT22;73746;47.466;8.992;2024-01-16T15:30:41;3.20;99.90
30678;DHT22;73746;47.466;8.992;2024-01-16T15:33:13;3.00;99.90
30678;DHT22;73746;47.466;8.992;2024-01-16T15:35:45;2.90;99.90
30678;DHT22;73746;47.466;8.992;2024-01-16T15:38:17;2.80;99.90
30678;DHT22;73746;47.466;8.992;2024-01-16T15:40:49;2.70;99.90
30678;DHT22;73746;47.466;8.992;2024-01-16T15:43:21;2.50;99.90
30678;DHT22;73746;47.466;8.992;2024-01-16T15:45:53;2.40;99.90
30678;DHT22;73746;47.466;8.992;2024-01-16T15:48:25;2.30;99.90
30678;DHT22;73746;47.466;8.992;2024-01-16T15:50:59;2.10;99.90
30678;DHT22;73746;47.466;8.992;2024-01-16T15:53:50;2.00;99.90
30678;DHT22;73746;47.466;8.992;2024-01-16T15:56:22;1.90;99.90
30678;DHT22;73746;47.466;8.992;2024-01-16T15:58:55;1.70;99.90
30678;DHT22;73746;47.466;8.992;2024-01-16T16:01:27;1.60;99.90
30678;DHT22;73746;47.466;8.992;2024-01-16T16:03:59;1.50;99.90
30678;DHT22;73746;47.466;8.992;2024-01-16T16:06:35;1.30;99.90
30678;DHT22;73746;47.466;8.992;2024-01-16T16:09:07;1.20;99.90
30678;DHT22;73746;47.466;8.992;2024-01-16T16:11:41;1.10;99.90
30678;DHT22;73746;47.466;8.992;2024-01-16T16:14:15;1.00;99.90
30678;DHT22;73746;47.466;8.992;2024-01-16T16:16:50;0.80;99.90
30678;DHT22;73746;47.466;8.992;2024-01-16T16:19:22;0.80;99.90
30678;DHT22;73746;47.466;8.992;2024-01-16T16:21:54;0.70;99.90
30678;DHT22;73746;47.466;8.992;2024-01-16T16:24:26;0.60;99.90